createdAt,value
2023-04-25T00:01:05.816Z,98426.38
2023-04-25T00:03:52.445Z,98439.22
2023-04-25T00:06:40.430Z,98439.25
2023-04-25T00:09:28.272Z,98423.81
2023-04-25T00:12:14.708Z,98410.09
2023-04-25T00:15:00.946Z,98428.94
2023-04-25T00:17:48.134Z,98423.84
2023-04-25T00:20:36.542Z,98430.69
2023-04-25T00:23:22.743Z,98441.84
2023-04-25T00:26:09.137Z,98433.28
2023-04-25T00:28:55.489Z,98449.59
2023-04-25T00:31:42.194Z,98443.59
2023-04-25T00:34:28.557Z,98438.47
2023-04-25T00:37:14.891Z,98429.03
2023-04-25T00:40:01.150Z,98425.59
2023-04-25T00:42:48.367Z,98453.06
2023-04-25T00:45:39.552Z,98433.31
2023-04-25T00:48:25.938Z,98418.75
2023-04-25T00:51:16.743Z,98441.91
2023-04-25T00:54:03.510Z,98395.53
2023-04-25T00:56:50.324Z,98423.00
2023-04-25T00:59:38.419Z,98418.69
2023-04-25T01:02:24.739Z,98398.13
2023-04-25T01:05:11.657Z,98403.28
2023-04-25T01:07:58.052Z,98416.13
2023-04-25T01:10:44.359Z,98417.00
2023-04-25T01:13:32.861Z,98405.81
2023-04-25T01:16:19.560Z,98410.13
2023-04-25T01:19:12.110Z,98426.47
2023-04-25T01:21:58.493Z,98418.75
2023-04-25T01:24:45.194Z,98418.72
2023-04-25T01:27:31.928Z,98410.13
2023-04-25T01:30:18.417Z,98410.16
2023-04-25T01:33:06.338Z,98405.00
2023-04-25T01:35:52.875Z,98387.81
2023-04-25T01:38:41.221Z,98429.91
2023-04-25T01:41:28.311Z,98419.59
2023-04-25T01:44:15.696Z,98409.28
2023-04-25T01:47:02.159Z,98417.03
2023-04-25T01:49:48.314Z,98392.13
2023-04-25T01:52:35.523Z,98412.72
2023-04-25T01:55:22.376Z,98411.00
2023-04-25T01:58:16.960Z,98370.66
2023-04-25T02:01:33.004Z,98409.28
2023-04-25T02:04:35.588Z,98379.22
2023-04-25T02:07:23.158Z,98399.84
2023-04-25T02:10:12.569Z,98380.06
2023-04-25T02:13:11.387Z,98366.34
2023-04-25T02:16:07.319Z,98379.25
2023-04-25T02:18:53.851Z,98411.00
2023-04-25T02:21:40.175Z,98392.09
2023-04-25T02:24:26.385Z,98383.53
2023-04-25T02:27:12.780Z,98397.28
2023-04-25T02:29:59.188Z,98405.00
2023-04-25T02:32:45.660Z,98354.34
2023-04-25T02:35:32.057Z,98396.38
2023-04-25T02:38:18.533Z,98391.25
2023-04-25T02:41:05.033Z,98384.38
2023-04-25T02:43:51.746Z,98362.06
2023-04-25T02:46:39.900Z,98356.06
2023-04-25T02:49:26.290Z,98361.22
2023-04-25T02:52:13.304Z,98381.81
2023-04-25T02:54:59.956Z,98389.53
2023-04-25T02:57:48.403Z,98384.41
2023-04-25T03:00:52.984Z,98376.69
2023-04-25T03:03:39.672Z,98371.53
2023-04-25T03:06:26.205Z,98342.34
2023-04-25T03:09:12.902Z,98387.81
2023-04-25T03:11:59.225Z,98369.81
2023-04-25T03:14:45.852Z,98386.09
2023-04-25T03:17:32.421Z,98359.50
2023-04-25T03:20:19.198Z,98352.66
2023-04-25T03:23:05.593Z,98356.94
2023-04-25T03:25:52.170Z,98383.53
2023-04-25T03:28:38.796Z,98391.25
2023-04-25T03:31:26.780Z,98371.53
2023-04-25T03:34:12.885Z,98376.66
2023-04-25T03:36:59.194Z,98379.22
2023-04-25T03:39:46.009Z,98342.34
2023-04-25T03:42:32.527Z,98357.78
2023-04-25T03:45:19.487Z,98380.09
2023-04-25T03:48:06.210Z,98380.97
2023-04-25T03:50:54.115Z,98380.94
2023-04-25T03:53:40.540Z,98395.56
2023-04-25T03:56:52.855Z,98350.91
2023-04-25T03:59:41.817Z,98349.22
2023-04-25T04:02:32.395Z,98381.81
2023-04-25T04:05:19.342Z,98380.94
2023-04-25T04:08:12.351Z,98386.97
2023-04-25T04:11:00.417Z,98373.22
2023-04-25T04:13:47.197Z,98362.94
2023-04-25T04:16:34.638Z,98381.81
2023-04-25T04:19:21.699Z,98388.69
2023-04-25T04:22:16.673Z,98378.38
2023-04-25T04:25:03.780Z,98354.34
2023-04-25T04:28:12.027Z,98393.84
2023-04-25T04:31:16.843Z,98393.78
2023-04-25T04:34:04.501Z,98380.91
2023-04-25T04:36:51.096Z,98398.94
2023-04-25T04:39:37.870Z,98403.22
2023-04-25T04:42:43.790Z,98390.38
2023-04-25T04:45:59.686Z,98400.69
2023-04-25T04:49:13.287Z,98374.91
2023-04-25T04:52:19.514Z,98403.22
2023-04-25T04:55:16.049Z,98400.63
2023-04-25T04:58:30.081Z,98392.03
2023-04-25T05:01:32.914Z,98413.50
2023-04-25T05:04:26.686Z,98387.78
2023-04-25T05:07:36.143Z,98403.22
2023-04-25T05:10:30.410Z,98406.66
2023-04-25T05:13:16.639Z,98414.31
2023-04-25T05:16:23.668Z,98418.63
2023-04-25T05:19:17.914Z,98392.84
2023-04-25T05:22:11.986Z,98383.31
2023-04-25T05:25:17.031Z,98410.81
2023-04-25T05:28:38.940Z,98404.78
2023-04-25T05:31:37.000Z,98408.22
2023-04-25T05:34:29.945Z,98411.66
2023-04-25T05:37:19.243Z,98400.47
2023-04-25T05:40:15.373Z,98417.66
2023-04-25T05:43:04.525Z,98411.66
2023-04-25T05:46:08.581Z,98403.03
2023-04-25T05:49:16.892Z,98417.47
2023-04-25T05:52:26.184Z,98387.19
2023-04-25T05:55:28.101Z,98421.25
2023-04-25T05:58:15.540Z,98422.06
2023-04-25T06:01:03.708Z,98418.47
2023-04-25T06:03:50.826Z,98421.66
2023-04-25T06:06:37.870Z,98398.44
2023-04-25T06:09:24.045Z,98399.28
2023-04-25T06:12:10.338Z,98407.75
2023-04-25T06:14:57.070Z,98426.59
2023-04-25T06:17:43.701Z,98417.94
2023-04-25T06:20:30.282Z,98420.19
2023-04-25T06:23:18.912Z,98424.22
2023-04-25T06:26:11.341Z,98423.06
2023-04-25T06:29:00.371Z,98413.66
2023-04-25T06:31:46.502Z,98417.06
2023-04-25T06:34:33.268Z,98430.75
2023-04-25T06:37:20.013Z,98413.59
2023-04-25T06:40:10.273Z,98400.97
2023-04-25T06:42:56.639Z,98406.22
2023-04-25T06:46:01.988Z,98395.03
2023-04-25T06:48:52.175Z,98402.16
2023-04-25T06:51:40.031Z,98416.75
2023-04-25T06:54:28.095Z,98371.47
2023-04-25T06:57:21.617Z,98428.81
2023-04-25T07:00:12.155Z,98386.03
2023-04-25T07:02:59.089Z,98388.84
2023-04-25T07:05:46.907Z,98407.97
2023-04-25T07:08:33.285Z,98419.47
2023-04-25T07:11:19.749Z,98423.84
2023-04-25T07:14:06.154Z,98412.91
2023-04-25T07:16:54.604Z,98435.22
2023-04-25T07:19:41.530Z,98398.50
2023-04-25T07:22:29.184Z,98387.44
2023-04-25T07:25:15.583Z,98385.00
2023-04-25T07:28:01.736Z,98450.25
2023-04-25T07:30:48.598Z,98447.72
2023-04-25T07:33:35.688Z,98458.88
2023-04-25T07:36:22.543Z,98446.06
2023-04-25T07:39:11.877Z,98429.78
2023-04-25T07:42:01.462Z,98465.00
2023-04-25T07:44:49.551Z,98438.41
2023-04-25T07:47:37.134Z,98438.41
2023-04-25T07:50:24.031Z,98438.38
2023-04-25T07:53:11.154Z,98457.22
2023-04-25T07:56:04.962Z,98440.88
2023-04-25T07:58:54.782Z,98455.28
2023-04-25T08:01:42.376Z,98449.94
2023-04-25T08:04:31.048Z,98444.50
2023-04-25T08:07:23.913Z,98482.00
2023-04-25T08:10:14.510Z,98431.09
2023-04-25T08:13:02.271Z,98476.19
2023-04-25T08:15:49.656Z,98481.16
2023-04-25T08:18:36.280Z,98465.69
2023-04-25T08:21:23.167Z,98499.28
2023-04-25T08:24:09.743Z,98465.16
2023-04-25T08:26:59.870Z,98449.88
2023-04-25T08:29:48.545Z,98508.38
2023-04-25T08:32:35.566Z,98512.69
2023-04-25T08:35:38.714Z,98519.66
2023-04-25T08:38:26.045Z,98485.50
2023-04-25T08:41:14.371Z,98511.19
2023-04-25T08:44:01.934Z,98527.56
2023-04-25T08:46:51.120Z,98501.16
2023-04-25T08:49:52.226Z,98502.16
2023-04-25T08:52:45.543Z,98533.97
2023-04-25T08:55:32.712Z,98497.19
2023-04-25T08:58:20.584Z,98530.69
2023-04-25T09:01:07.484Z,98518.66
2023-04-25T09:04:01.589Z,98554.94
2023-04-25T09:06:49.173Z,98548.00
2023-04-25T09:09:36.624Z,98545.47
2023-04-25T09:12:23.706Z,98543.78
2023-04-25T09:15:12.758Z,98566.09
2023-04-25T09:18:30.576Z,98561.81
2023-04-25T09:21:23.450Z,98571.25
2023-04-25T09:24:10.539Z,98577.25
2023-04-25T09:26:56.919Z,98552.41
2023-04-25T09:29:43.592Z,98563.66
2023-04-25T09:32:31.751Z,98583.41
2023-04-25T09:35:29.149Z,98592.91
2023-04-25T09:38:19.660Z,98601.53
2023-04-25T09:41:24.987Z,98618.78
2023-04-25T09:44:14.046Z,98596.50
2023-04-25T09:47:03.391Z,98613.72
2023-04-25T09:49:52.988Z,98646.13
2023-04-25T09:52:40.736Z,98623.41
2023-04-25T09:55:37.348Z,98646.28
2023-04-25T09:58:25.578Z,98627.94
2023-04-25T10:01:12.092Z,98619.41
2023-04-25T10:04:12.228Z,98662.66
2023-04-25T10:07:10.607Z,98657.59
2023-04-25T10:10:04.001Z,98652.47
2023-04-25T10:12:50.557Z,98593.09
2023-04-25T10:15:40.444Z,98625.94
2023-04-25T10:18:28.481Z,98678.44
2023-04-25T10:21:17.122Z,98663.72
2023-04-25T10:24:04.146Z,98664.63
2023-04-25T10:26:51.699Z,98661.13
2023-04-25T10:29:38.677Z,98652.66
2023-04-25T10:32:25.111Z,98644.19
2023-04-25T10:35:17.007Z,98686.47
2023-04-25T10:38:10.570Z,98698.59
2023-04-25T10:41:09.805Z,98706.38
2023-04-25T10:44:05.387Z,98676.28
2023-04-25T10:46:52.141Z,98702.09
2023-04-25T10:49:43.235Z,98703.00
2023-04-25T10:52:30.680Z,98641.00
2023-04-25T10:55:17.091Z,98691.78
2023-04-25T10:58:03.511Z,98694.34
2023-04-25T11:03:44.884Z,98715.91
2023-04-25T11:06:43.201Z,98713.34
2023-04-25T11:09:30.963Z,98698.75
2023-04-25T11:12:18.547Z,98711.72
2023-04-25T11:15:08.925Z,98711.78
2023-04-25T11:17:56.110Z,98723.78
2023-04-25T11:20:44.394Z,98721.16
2023-04-25T11:23:31.463Z,98694.41
2023-04-25T11:26:17.864Z,98691.00
2023-04-25T11:29:04.504Z,98727.09
2023-04-25T11:31:51.758Z,98707.31
2023-04-25T11:34:38.260Z,98693.56
2023-04-25T11:37:24.597Z,98715.97
2023-04-25T11:40:12.700Z,98729.75
2023-04-25T11:43:01.720Z,98722.03
2023-04-25T11:45:52.089Z,98733.16
2023-04-25T11:48:43.431Z,98731.41
2023-04-25T11:51:29.660Z,98729.53
2023-04-25T11:54:16.468Z,98697.63
2023-04-25T11:57:02.640Z,98723.31
2023-04-25T11:59:48.860Z,98714.63
2023-04-25T12:02:41.826Z,98729.94
2023-04-25T12:05:33.565Z,98732.31
2023-04-25T12:08:20.364Z,98702.13
2023-04-25T12:11:06.718Z,98718.31
2023-04-25T12:13:54.803Z,98719.34
2023-04-25T12:16:46.160Z,98715.84
2023-04-25T12:19:38.230Z,98748.47
2023-04-25T12:22:25.644Z,98754.47
2023-04-25T12:25:35.012Z,98715.78
2023-04-25T12:28:24.902Z,98726.91
2023-04-25T12:31:11.285Z,98765.00
2023-04-25T12:33:58.063Z,98743.63
2023-04-25T12:36:44.636Z,98756.66
2023-04-25T12:39:30.833Z,98726.72
2023-04-25T12:42:17.076Z,98770.72
2023-04-25T12:45:03.743Z,98717.53
2023-04-25T12:47:49.895Z,98769.22
2023-04-25T12:50:36.510Z,98782.97
2023-04-25T12:53:25.103Z,98778.63
2023-04-25T12:56:12.111Z,98752.78
2023-04-25T12:58:58.804Z,98744.03
2023-04-25T13:01:46.397Z,98767.84
2023-04-25T13:04:33.265Z,98771.16
2023-04-25T13:07:19.405Z,98740.16
2023-04-25T13:10:06.792Z,98726.25
2023-04-25T13:12:53.056Z,98750.25
2023-04-25T13:15:39.541Z,98750.25
2023-04-25T13:18:27.457Z,98761.09
2023-04-25T13:21:14.346Z,98763.19
2023-04-25T13:24:01.197Z,98749.13
2023-04-25T13:26:47.839Z,98733.69
2023-04-25T13:29:36.406Z,98761.09
2023-04-25T13:32:22.551Z,98763.63
2023-04-25T13:35:12.599Z,98766.38
2023-04-25T13:37:58.811Z,98781.88
2023-04-25T13:40:45.326Z,98773.97
2023-04-25T13:43:33.072Z,98785.00
2023-04-25T13:46:40.954Z,98786.59
2023-04-25T13:49:26.239Z,98760.09
2023-04-25T13:52:12.761Z,98765.16
2023-04-25T13:54:59.587Z,98778.22
2023-04-25T13:57:46.583Z,98763.75
2023-04-25T14:00:32.979Z,98788.28
2023-04-25T14:03:19.203Z,98738.94
2023-04-25T14:06:05.669Z,98777.56
2023-04-25T14:08:51.761Z,98757.53
2023-04-25T14:11:37.992Z,98763.31
2023-04-25T14:14:25.209Z,98792.53
2023-04-25T14:17:11.876Z,98790.09
2023-04-25T14:19:58.555Z,98765.47
2023-04-25T14:22:45.072Z,98766.78
2023-04-25T14:25:31.272Z,98798.84
2023-04-25T14:28:17.752Z,98786.75
2023-04-25T14:31:04.406Z,98776.22
2023-04-25T14:33:51.407Z,98765.53
2023-04-25T14:36:38.072Z,98782.88
2023-04-25T14:39:24.330Z,98764.28
2023-04-25T14:42:12.079Z,98789.81
2023-04-25T14:44:58.585Z,98783.19
2023-04-25T14:47:44.930Z,98730.31
2023-04-25T14:50:31.742Z,98749.59
2023-04-25T14:53:18.391Z,98728.09
2023-04-25T14:56:05.598Z,98774.47
2023-04-25T14:58:52.249Z,98764.63
2023-04-25T15:01:38.786Z,98793.19
2023-04-25T15:04:25.241Z,98771.00
2023-04-25T15:07:12.112Z,98775.88
2023-04-25T15:09:58.356Z,98783.53
2023-04-25T15:12:46.976Z,98803.91
2023-04-25T15:15:34.286Z,98800.03
2023-04-25T15:18:24.814Z,98798.38
2023-04-25T15:21:11.113Z,98777.53
2023-04-25T15:23:57.531Z,98800.19
2023-04-25T15:26:43.928Z,98801.94
2023-04-25T15:29:30.931Z,98764.72
2023-04-25T15:32:17.541Z,98768.00
2023-04-25T15:35:06.858Z,98798.97
2023-04-25T15:37:53.093Z,98777.09
2023-04-25T15:40:39.379Z,98765.56
2023-04-25T15:43:26.374Z,98788.75
2023-04-25T15:46:12.870Z,98791.44
2023-04-25T15:48:59.360Z,98816.50
2023-04-25T15:51:45.714Z,98783.34
2023-04-25T15:54:31.909Z,98779.06
2023-04-25T15:57:18.520Z,98773.13
2023-04-25T16:00:10.957Z,98814.44
2023-04-25T16:02:58.118Z,98772.28
2023-04-25T16:05:44.606Z,98792.91
2023-04-25T16:08:34.247Z,98790.28
2023-04-25T16:11:20.750Z,98724.16
2023-04-25T16:14:07.158Z,98794.59
2023-04-25T16:16:53.862Z,98810.91
2023-04-25T16:19:40.701Z,98766.34
2023-04-25T16:22:26.926Z,98774.19
2023-04-25T16:25:13.546Z,98827.59
2023-04-25T16:28:00.231Z,98826.06
2023-04-25T16:30:46.597Z,98827.97
2023-04-25T16:33:34.199Z,98789.41
2023-04-25T16:36:20.490Z,98804.13
2023-04-25T16:39:08.376Z,98814.59
2023-04-25T16:41:54.892Z,98787.94
2023-04-25T16:44:41.277Z,98805.25
2023-04-25T16:47:27.532Z,98828.50
2023-04-25T16:50:15.186Z,98849.19
2023-04-25T16:53:01.749Z,98813.13
2023-04-25T16:55:48.006Z,98831.22
2023-04-25T16:58:35.547Z,98854.50
2023-04-25T17:01:22.587Z,98835.59
2023-04-25T17:04:09.280Z,98863.19
2023-04-25T17:06:55.529Z,98825.34
2023-04-25T17:09:41.838Z,98833.91
2023-04-25T17:12:28.291Z,98882.06
2023-04-25T17:15:14.666Z,98892.31
2023-04-25T17:18:01.006Z,98874.91
2023-04-25T17:20:47.486Z,98906.72
2023-04-25T17:23:34.405Z,98901.53
2023-04-25T17:26:21.158Z,98873.00
2023-04-25T17:29:08.171Z,98860.88
2023-04-25T17:31:56.940Z,98928.09
2023-04-25T17:34:43.568Z,98865.91
2023-04-25T17:37:30.123Z,98902.13
2023-04-25T17:40:16.776Z,98890.06
2023-04-25T17:43:03.287Z,98908.09
2023-04-25T17:45:49.939Z,98882.25
2023-04-25T17:48:36.149Z,98917.53
2023-04-25T17:51:22.642Z,98889.13
2023-04-25T17:54:09.328Z,98871.88
2023-04-25T17:56:56.389Z,98858.09
2023-04-25T17:59:43.059Z,98921.88
2023-04-25T18:02:29.572Z,98899.34
2023-04-25T18:05:16.554Z,98925.19
2023-04-25T18:08:03.103Z,98932.91
2023-04-25T18:15:16.687Z,98922.41
2023-04-25T18:18:09.554Z,98881.88
2023-04-25T18:20:56.075Z,98937.81
2023-04-25T18:23:42.395Z,98895.34
2023-04-25T18:26:30.179Z,98953.13
2023-04-25T18:29:31.427Z,98917.72
2023-04-25T18:32:18.976Z,98958.56
2023-04-25T18:38:01.566Z,98941.94
2023-04-25T18:40:59.097Z,98928.94
2023-04-25T18:43:53.462Z,98967.06
2023-04-25T18:46:43.471Z,98954.97
2023-04-25T18:49:29.938Z,98951.38
2023-04-25T18:52:16.663Z,98965.19
2023-04-25T18:55:03.567Z,98991.09
2023-04-25T18:57:49.846Z,98972.72
2023-04-25T19:00:37.259Z,99003.78
2023-04-25T19:03:24.273Z,98985.88
2023-04-25T19:06:11.041Z,99009.97
2023-04-25T19:08:57.746Z,98989.16
2023-04-25T19:11:44.524Z,98996.78
2023-04-25T19:14:32.327Z,98994.13
2023-04-25T19:17:18.631Z,99015.69
2023-04-25T19:20:06.902Z,98996.75
2023-04-25T19:22:53.262Z,98985.50
2023-04-25T19:25:39.574Z,98970.72
2023-04-25T19:28:26.457Z,99018.97
2023-04-25T19:31:13.109Z,98968.19
2023-04-25T19:33:59.473Z,98992.41
2023-04-25T19:36:45.880Z,99023.38
2023-04-25T19:39:32.444Z,98995.88
2023-04-25T19:42:19.665Z,98995.88
2023-04-25T19:45:07.682Z,99028.69
2023-04-25T19:47:53.950Z,99034.47
2023-04-25T19:50:41.697Z,99031.06
2023-04-25T19:53:28.317Z,99030.19
2023-04-25T19:56:14.820Z,99011.16
2023-04-25T19:59:01.072Z,99033.53
2023-04-25T20:01:47.513Z,99018.88
2023-04-25T20:04:33.937Z,99033.44
2023-04-25T20:07:22.617Z,99014.38
2023-04-25T20:10:12.595Z,99026.50
2023-04-25T20:12:59.140Z,99041.06
2023-04-25T20:15:45.931Z,99018.59
2023-04-25T20:18:32.027Z,99026.25
2023-04-25T20:21:19.266Z,99030.38
2023-04-25T20:24:05.693Z,99024.50
2023-04-25T20:26:52.213Z,99055.66
2023-04-25T20:29:38.392Z,99052.88
2023-04-25T20:32:24.930Z,99052.91
2023-04-25T20:35:11.343Z,99042.47
2023-04-25T20:37:57.534Z,98995.00
2023-04-25T20:40:43.834Z,99032.09
2023-04-25T20:43:31.252Z,99040.81
2023-04-25T20:46:18.069Z,99030.44
2023-04-25T20:49:05.248Z,99050.41
2023-04-25T20:51:52.763Z,99061.50
2023-04-25T20:54:39.425Z,99062.25
2023-04-25T20:57:25.998Z,99050.25
2023-04-25T21:00:18.830Z,99039.00
2023-04-25T21:03:06.032Z,99009.44
2023-04-25T21:05:52.268Z,99061.91
2023-04-25T21:08:38.789Z,99056.69
2023-04-25T21:11:25.321Z,99008.22
2023-04-25T21:14:11.763Z,99043.81
2023-04-25T21:16:57.944Z,99043.75
2023-04-25T21:19:44.508Z,99024.59
2023-04-25T21:22:30.973Z,99057.53
2023-04-25T21:25:23.920Z,99027.91
2023-04-25T21:28:10.156Z,99063.53
2023-04-25T21:30:56.450Z,99075.34
2023-04-25T21:33:43.112Z,99010.47
2023-04-25T21:36:29.312Z,99046.88
2023-04-25T21:39:15.680Z,99059.78
2023-04-25T21:42:03.069Z,99085.00
2023-04-25T21:44:49.512Z,99078.16
2023-04-25T21:47:36.348Z,99050.50
2023-04-25T21:50:22.896Z,99085.91
2023-04-25T21:53:10.882Z,99056.50
2023-04-25T21:55:57.265Z,99069.41
2023-04-25T21:58:43.705Z,99040.13
2023-04-25T22:01:30.030Z,99077.28
2023-04-25T22:04:16.803Z,99063.41
2023-04-25T22:07:03.635Z,99091.06
2023-04-25T22:09:54.938Z,99041.66
2023-04-25T22:12:41.484Z,99096.19
2023-04-25T22:15:29.432Z,99065.13
2023-04-25T22:18:16.334Z,99065.06
2023-04-25T22:21:02.719Z,99093.78
2023-04-25T22:23:50.704Z,99068.66
2023-04-25T22:26:37.314Z,99072.09
2023-04-25T22:29:24.180Z,99050.31
2023-04-25T22:32:10.296Z,99107.44
2023-04-25T22:34:56.551Z,99087.53
2023-04-25T22:37:42.904Z,99090.94
2023-04-25T22:40:29.238Z,99123.75
2023-04-25T22:43:15.868Z,99099.47
2023-04-25T22:46:03.334Z,99104.53
2023-04-25T22:48:49.841Z,99124.50
2023-04-25T22:51:36.982Z,99098.47
2023-04-25T22:54:23.924Z,99078.81
2023-04-25T22:57:10.573Z,99096.81
2023-04-25T22:59:57.924Z,99095.91
2023-04-25T23:02:45.980Z,99105.19
2023-04-25T23:05:33.235Z,99009.94
2023-04-25T23:08:19.430Z,99082.97
2023-04-25T23:11:07.717Z,99124.19
2023-04-25T23:13:53.983Z,99109.34
2023-04-25T23:16:40.772Z,99118.03
2023-04-25T23:19:27.525Z,99039.22
2023-04-25T23:22:14.298Z,99089.31
2023-04-25T23:25:01.004Z,99087.41
2023-04-25T23:27:47.729Z,99075.97
2023-04-25T23:30:34.399Z,99088.72
2023-04-25T23:33:20.631Z,99106.69
2023-04-25T23:36:07.634Z,99105.91
2023-04-25T23:38:55.807Z,99109.09
2023-04-25T23:41:42.003Z,99115.19
2023-04-25T23:44:28.462Z,99125.72
2023-04-25T23:47:17.504Z,99133.78
2023-04-25T23:50:04.410Z,99138.09
2023-04-25T23:52:51.144Z,99133.84
2023-04-25T23:55:37.892Z,99106.16
2023-04-25T23:58:24.469Z,99109.66
